sensor_id;sensor_type;location;lat;lon;timestamp;P1;durP1;ratioP1;P2;durP2;ratioP2
5303;SDS011;2674;49.722;10.892;2022-09-02T00:01:02;1.73;;;1.00;;
5303;SDS011;2674;49.722;10.892;2022-09-02T00:03:34;2.70;;;1.50;;
5303;SDS011;2674;49.722;10.892;2022-09-02T00:06:00;2.83;;;1.77;;
5303;SDS011;2674;49.722;10.892;2022-09-02T00:08:27;1.63;;;1.63;;
5303;SDS011;2674;49.722;10.892;2022-09-02T00:10:55;1.57;;;1.47;;
5303;SDS011;2674;49.722;10.892;2022-09-02T00:13:22;2.47;;;1.30;;
5303;SDS011;2674;49.722;10.892;2022-09-02T00:15:49;2.93;;;1.67;;
5303;SDS011;2674;49.722;10.892;2022-09-02T00:18:15;2.77;;;1.80;;
5303;SDS011;2674;49.722;10.892;2022-09-02T00:20:43;1.60;;;1.50;;
5303;SDS011;2674;49.722;10.892;2022-09-02T00:23:10;1.83;;;1.50;;
5303;SDS011;2674;49.722;10.892;2022-09-02T00:25:37;2.10;;;1.70;;
5303;SDS011;2674;49.722;10.892;2022-09-02T00:28:05;1.73;;;1.23;;
5303;SDS011;2674;49.722;10.892;2022-09-02T00:30:32;2.07;;;1.70;;
5303;SDS011;2674;49.722;10.892;2022-09-02T00:32:58;4.00;;;1.33;;
5303;SDS011;2674;49.722;10.892;2022-09-02T00:35:24;1.63;;;1.53;;
5303;SDS011;2674;49.722;10.892;2022-09-02T00:37:50;4.30;;;1.70;;
5303;SDS011;2674;49.722;10.892;2022-09-02T00:40:16;3.20;;;1.60;;
5303;SDS011;2674;49.722;10.892;2022-09-02T00:42:42;3.83;;;1.33;;
5303;SDS011;2674;49.722;10.892;2022-09-02T00:45:09;8.93;;;1.23;;
5303;SDS011;2674;49.722;10.892;2022-09-02T00:47:36;2.27;;;1.57;;
5303;SDS011;2674;49.722;10.892;2022-09-02T00:50:03;1.23;;;1.20;;
5303;SDS011;2674;49.722;10.892;2022-09-02T00:52:37;2.20;;;1.40;;
5303;SDS011;2674;49.722;10.892;2022-09-02T00:55:34;1.27;;;1.20;;
5303;SDS011;2674;49.722;10.892;2022-09-02T00:58:03;3.47;;;1.53;;
5303;SDS011;2674;49.722;10.892;2022-09-02T01:00:36;1.70;;;1.63;;
5303;SDS011;2674;49.722;10.892;2022-09-02T01:03:08;4.33;;;1.83;;
5303;SDS011;2674;49.722;10.892;2022-09-02T01:05:38;1.73;;;1.57;;
5303;SDS011;2674;49.722;10.892;2022-09-02T01:08:10;1.50;;;1.40;;
5303;SDS011;2674;49.722;10.892;2022-09-02T01:10:44;1.50;;;1.40;;
5303;SDS011;2674;49.722;10.892;2022-09-02T01:13:14;2.83;;;2.00;;
5303;SDS011;2674;49.722;10.892;2022-09-02T01:15:44;1.50;;;1.40;;
5303;SDS011;2674;49.722;10.892;2022-09-02T01:18:13;1.80;;;1.40;;
5303;SDS011;2674;49.722;10.892;2022-09-02T01:20:44;1.90;;;1.60;;
5303;SDS011;2674;49.722;10.892;2022-09-02T01:23:12;1.93;;;1.40;;
5303;SDS011;2674;49.722;10.892;2022-09-02T01:25:44;2.03;;;1.83;;
5303;SDS011;2674;49.722;10.892;2022-09-02T01:28:12;1.97;;;1.87;;
5303;SDS011;2674;49.722;10.892;2022-09-02T01:30:41;2.00;;;1.63;;
5303;SDS011;2674;49.722;10.892;2022-09-02T01:33:10;2.20;;;1.60;;
5303;SDS011;2674;49.722;10.892;2022-09-02T01:35:36;3.93;;;1.70;;
5303;SDS011;2674;49.722;10.892;2022-09-02T01:38:02;1.50;;;1.43;;
5303;SDS011;2674;49.722;10.892;2022-09-02T01:40:29;2.27;;;1.90;;
5303;SDS011;2674;49.722;10.892;2022-09-02T01:43:04;1.30;;;1.30;;
5303;SDS011;2674;49.722;10.892;2022-09-02T01:45:36;1.93;;;1.53;;
5303;SDS011;2674;49.722;10.892;2022-09-02T01:48:04;2.30;;;1.33;;
5303;SDS011;2674;49.722;10.892;2022-09-02T01:50:33;5.03;;;1.40;;
5303;SDS011;2674;49.722;10.892;2022-09-02T01:53:01;2.40;;;1.50;;
5303;SDS011;2674;49.722;10.892;2022-09-02T01:55:28;1.60;;;1.50;;
5303;SDS011;2674;49.722;10.892;2022-09-02T01:57:55;1.70;;;1.60;;
5303;SDS011;2674;49.722;10.892;2022-09-02T02:00:22;1.83;;;1.73;;
5303;SDS011;2674;49.722;10.892;2022-09-02T02:02:49;2.03;;;1.90;;
5303;SDS011;2674;49.722;10.892;2022-09-02T02:05:15;1.70;;;1.60;;
5303;SDS011;2674;49.722;10.892;2022-09-02T02:07:41;1.70;;;1.60;;
5303;SDS011;2674;49.722;10.892;2022-09-02T02:10:08;2.10;;;1.87;;
5303;SDS011;2674;49.722;10.892;2022-09-02T02:12:36;1.97;;;1.87;;
5303;SDS011;2674;49.722;10.892;2022-09-02T02:15:03;1.67;;;1.57;;
5303;SDS011;2674;49.722;10.892;2022-09-02T02:17:31;3.73;;;2.00;;
5303;SDS011;2674;49.722;10.892;2022-09-02T02:19:58;2.20;;;1.57;;
5303;SDS011;2674;49.722;10.892;2022-09-02T02:22:24;1.73;;;1.57;;
5303;SDS011;2674;49.722;10.892;2022-09-02T02:24:51;2.07;;;1.80;;
5303;SDS011;2674;49.722;10.892;2022-09-02T02:27:18;1.50;;;1.40;;
5303;SDS011;2674;49.722;10.892;2022-09-02T02:29:45;1.73;;;1.47;;
5303;SDS011;2674;49.722;10.892;2022-09-02T02:32:11;1.30;;;1.20;;
5303;SDS011;2674;49.722;10.892;2022-09-02T02:34:37;2.13;;;1.93;;
5303;SDS011;2674;49.722;10.892;2022-09-02T02:37:03;1.80;;;1.70;;
5303;SDS011;2674;49.722;10.892;2022-09-02T02:39:30;2.07;;;1.97;;
5303;SDS011;2674;49.722;10.892;2022-09-02T02:41:56;2.13;;;2.03;;
5303;SDS011;2674;49.722;10.892;2022-09-02T02:44:22;2.40;;;2.20;;
5303;SDS011;2674;49.722;10.892;2022-09-02T02:46:48;2.90;;;2.53;;
5303;SDS011;2674;49.722;10.892;2022-09-02T02:49:14;6.07;;;2.47;;
5303;SDS011;2674;49.722;10.892;2022-09-02T02:51:40;2.90;;;2.50;;
5303;SDS011;2674;49.722;10.892;2022-09-02T02:54:07;3.47;;;3.17;;
5303;SDS011;2674;49.722;10.892;2022-09-02T02:56:34;4.60;;;2.80;;
5303;SDS011;2674;49.722;10.892;2022-09-02T02:59:00;2.63;;;2.53;;
5303;SDS011;2674;49.722;10.892;2022-09-02T03:01:28;3.00;;;2.80;;
5303;SDS011;2674;49.722;10.892;2022-09-02T03:03:54;8.63;;;2.33;;
5303;SDS011;2674;49.722;10.892;2022-09-02T03:06:24;2.40;;;2.30;;
5303;SDS011;2674;49.722;10.892;2022-09-02T03:08:50;4.90;;;3.10;;
5303;SDS011;2674;49.722;10.892;2022-09-02T03:11:17;2.03;;;1.80;;
5303;SDS011;2674;49.722;10.892;2022-09-02T03:13:46;3.07;;;2.00;;
5303;SDS011;2674;49.722;10.892;2022-09-02T03:16:14;2.30;;;2.10;;
5303;SDS011;2674;49.722;10.892;2022-09-02T03:18:42;8.10;;;2.60;;
5303;SDS011;2674;49.722;10.892;2022-09-02T03:21:08;2.57;;;2.37;;
5303;SDS011;2674;49.722;10.892;2022-09-02T03:23:34;2.00;;;1.90;;
5303;SDS011;2674;49.722;10.892;2022-09-02T03:26:00;2.53;;;2.43;;
5303;SDS011;2674;49.722;10.892;2022-09-02T03:28:26;2.83;;;2.60;;
5303;SDS011;2674;49.722;10.892;2022-09-02T03:30:52;3.00;;;2.10;;
5303;SDS011;2674;49.722;10.892;2022-09-02T03:33:18;2.50;;;2.30;;
5303;SDS011;2674;49.722;10.892;2022-09-02T03:35:44;2.90;;;1.70;;
5303;SDS011;2674;49.722;10.892;2022-09-02T03:38:11;1.73;;;1.63;;
5303;SDS011;2674;49.722;10.892;2022-09-02T03:40:37;2.20;;;2.00;;
5303;SDS011;2674;49.722;10.892;2022-09-02T03:43:04;2.10;;;2.00;;
5303;SDS011;2674;49.722;10.892;2022-09-02T03:45:30;3.27;;;2.40;;
5303;SDS011;2674;49.722;10.892;2022-09-02T03:47:56;1.93;;;1.83;;
5303;SDS011;2674;49.722;10.892;2022-09-02T03:50:27;4.43;;;2.13;;
5303;SDS011;2674;49.722;10.892;2022-09-02T03:52:55;5.77;;;2.30;;
5303;SDS011;2674;49.722;10.892;2022-09-02T03:55:23;2.70;;;1.83;;
5303;SDS011;2674;49.722;10.892;2022-09-02T03:57:50;1.80;;;1.70;;
5303;SDS011;2674;49.722;10.892;2022-09-02T04:00:17;2.03;;;1.73;;
5303;SDS011;2674;49.722;10.892;2022-09-02T04:02:47;3.37;;;2.03;;
5303;SDS011;2674;49.722;10.892;2022-09-02T04:05:12;2.83;;;2.10;;
5303;SDS011;2674;49.722;10.892;2022-09-02T04:07:39;4.23;;;2.50;;
5303;SDS011;2674;49.722;10.892;2022-09-02T04:10:05;2.70;;;2.50;;
5303;SDS011;2674;49.722;10.892;2022-09-02T04:12:33;2.93;;;2.73;;
5303;SDS011;2674;49.722;10.892;2022-09-02T04:15:01;11.63;;;2.57;;
5303;SDS011;2674;49.722;10.892;2022-09-02T04:23:44;4.27;;;3.00;;
5303;SDS011;2674;49.722;10.892;2022-09-02T04:26:12;3.10;;;2.67;;
5303;SDS011;2674;49.722;10.892;2022-09-02T04:28:40;4.33;;;2.60;;
5303;SDS011;2674;49.722;10.892;2022-09-02T04:31:06;3.43;;;3.23;;
5303;SDS011;2674;49.722;10.892;2022-09-02T04:33:36;2.53;;;2.33;;
5303;SDS011;2674;49.722;10.892;2022-09-02T04:36:03;4.10;;;3.43;;
5303;SDS011;2674;49.722;10.892;2022-09-02T04:38:34;4.20;;;2.83;;
5303;SDS011;2674;49.722;10.892;2022-09-02T04:41:04;6.07;;;2.73;;
5303;SDS011;2674;49.722;10.892;2022-09-02T04:43:34;3.50;;;2.30;;
5303;SDS011;2674;49.722;10.892;2022-09-02T04:46:02;3.00;;;2.80;;
5303;SDS011;2674;49.722;10.892;2022-09-02T04:48:30;3.57;;;2.70;;
5303;SDS011;2674;49.722;10.892;2022-09-02T04:50:56;4.63;;;3.23;;
5303;SDS011;2674;49.722;10.892;2022-09-02T04:53:27;3.73;;;3.03;;
5303;SDS011;2674;49.722;10.892;2022-09-02T04:55:52;3.90;;;3.40;;
5303;SDS011;2674;49.722;10.892;2022-09-02T04:58:18;4.37;;;3.93;;
5303;SDS011;2674;49.722;10.892;2022-09-02T05:00:45;3.30;;;3.10;;
5303;SDS011;2674;49.722;10.892;2022-09-02T05:03:11;4.67;;;3.20;;
5303;SDS011;2674;49.722;10.892;2022-09-02T05:05:37;6.73;;;3.60;;
5303;SDS011;2674;49.722;10.892;2022-09-02T05:08:03;8.60;;;3.80;;
5303;SDS011;2674;49.722;10.892;2022-09-02T05:10:29;5.17;;;4.03;;
5303;SDS011;2674;49.722;10.892;2022-09-02T05:12:57;6.30;;;3.50;;
5303;SDS011;2674;49.722;10.892;2022-09-02T05:15:23;4.33;;;3.97;;
5303;SDS011;2674;49.722;10.892;2022-09-02T05:17:50;9.90;;;4.30;;
5303;SDS011;2674;49.722;10.892;2022-09-02T05:20:16;4.13;;;3.73;;
5303;SDS011;2674;49.722;10.892;2022-09-02T05:22:43;7.87;;;4.67;;
5303;SDS011;2674;49.722;10.892;2022-09-02T05:25:10;4.80;;;3.03;;
5303;SDS011;2674;49.722;10.892;2022-09-02T05:27:36;3.67;;;3.33;;
5303;SDS011;2674;49.722;10.892;2022-09-02T05:30:03;8.17;;;4.33;;
5303;SDS011;2674;49.722;10.892;2022-09-02T05:32:30;3.90;;;3.50;;
5303;SDS011;2674;49.722;10.892;2022-09-02T05:34:56;4.27;;;3.30;;
5303;SDS011;2674;49.722;10.892;2022-09-02T05:37:22;13.47;;;5.10;;
5303;SDS011;2674;49.722;10.892;2022-09-02T05:39:51;6.33;;;3.50;;
5303;SDS011;2674;49.722;10.892;2022-09-02T05:42:17;3.83;;;3.53;;
5303;SDS011;2674;49.722;10.892;2022-09-02T05:44:44;7.80;;;3.97;;
5303;SDS011;2674;49.722;10.892;2022-09-02T05:47:10;3.73;;;3.33;;
5303;SDS011;2674;49.722;10.892;2022-09-02T05:49:36;6.60;;;2.83;;
5303;SDS011;2674;49.722;10.892;2022-09-02T05:52:03;3.83;;;3.43;;
5303;SDS011;2674;49.722;10.892;2022-09-02T05:54:30;4.67;;;3.00;;
5303;SDS011;2674;49.722;10.892;2022-09-02T05:56:59;5.77;;;3.37;;
5303;SDS011;2674;49.722;10.892;2022-09-02T05:59:29;3.53;;;2.90;;
5303;SDS011;2674;49.722;10.892;2022-09-02T06:01:56;3.80;;;3.50;;
5303;SDS011;2674;49.722;10.892;2022-09-02T06:04:22;5.67;;;3.37;;
5303;SDS011;2674;49.722;10.892;2022-09-02T06:06:49;10.43;;;4.07;;
5303;SDS011;2674;49.722;10.892;2022-09-02T06:09:16;4.33;;;3.93;;
5303;SDS011;2674;49.722;10.892;2022-09-02T06:11:44;10.73;;;4.33;;
5303;SDS011;2674;49.722;10.892;2022-09-02T06:14:13;4.90;;;2.90;;
5303;SDS011;2674;49.722;10.892;2022-09-02T06:16:41;7.60;;;3.77;;
5303;SDS011;2674;49.722;10.892;2022-09-02T06:19:08;4.10;;;3.70;;
5303;SDS011;2674;49.722;10.892;2022-09-02T06:21:34;3.30;;;2.77;;
5303;SDS011;2674;49.722;10.892;2022-09-02T06:24:05;3.47;;;3.00;;
5303;SDS011;2674;49.722;10.892;2022-09-02T06:26:32;4.80;;;3.50;;
5303;SDS011;2674;49.722;10.892;2022-09-02T06:28:59;3.60;;;3.07;;
5303;SDS011;2674;49.722;10.892;2022-09-02T06:31:25;4.00;;;2.73;;
5303;SDS011;2674;49.722;10.892;2022-09-02T06:33:51;5.83;;;3.50;;
5303;SDS011;2674;49.722;10.892;2022-09-02T06:36:19;3.90;;;3.00;;
5303;SDS011;2674;49.722;10.892;2022-09-02T06:38:49;3.43;;;3.13;;
5303;SDS011;2674;49.722;10.892;2022-09-02T06:41:17;2.40;;;2.10;;
5303;SDS011;2674;49.722;10.892;2022-09-02T06:43:47;4.23;;;2.13;;
5303;SDS011;2674;49.722;10.892;2022-09-02T06:46:19;2.07;;;1.97;;
5303;SDS011;2674;49.722;10.892;2022-09-02T06:48:47;1.70;;;1.60;;
5303;SDS011;2674;49.722;10.892;2022-09-02T06:51:15;1.60;;;1.50;;
5303;SDS011;2674;49.722;10.892;2022-09-02T06:53:45;1.93;;;1.83;;
5303;SDS011;2674;49.722;10.892;2022-09-02T06:56:11;2.20;;;1.77;;
5303;SDS011;2674;49.722;10.892;2022-09-02T06:58:37;2.80;;;2.60;;
5303;SDS011;2674;49.722;10.892;2022-09-02T07:01:03;2.50;;;2.10;;
5303;SDS011;2674;49.722;10.892;2022-09-02T07:03:29;4.03;;;2.03;;
5303;SDS011;2674;49.722;10.892;2022-09-02T07:06:14;3.13;;;1.60;;
5303;SDS011;2674;49.722;10.892;2022-09-02T07:08:40;2.43;;;1.50;;
5303;SDS011;2674;49.722;10.892;2022-09-02T07:11:18;1.40;;;1.37;;
5303;SDS011;2674;49.722;10.892;2022-09-02T07:13:47;3.93;;;1.90;;
5303;SDS011;2674;49.722;10.892;2022-09-02T07:16:13;6.50;;;1.77;;
5303;SDS011;2674;49.722;10.892;2022-09-02T07:18:40;1.80;;;1.70;;
5303;SDS011;2674;49.722;10.892;2022-09-02T07:21:10;1.60;;;1.50;;
5303;SDS011;2674;49.722;10.892;2022-09-02T07:23:37;4.00;;;1.90;;
5303;SDS011;2674;49.722;10.892;2022-09-02T07:26:04;1.50;;;1.40;;
5303;SDS011;2674;49.722;10.892;2022-09-02T07:28:35;2.53;;;1.30;;
5303;SDS011;2674;49.722;10.892;2022-09-02T07:31:01;1.43;;;1.33;;
5303;SDS011;2674;49.722;10.892;2022-09-02T07:33:31;3.37;;;1.60;;
5303;SDS011;2674;49.722;10.892;2022-09-02T07:35:57;1.70;;;1.60;;
5303;SDS011;2674;49.722;10.892;2022-09-02T07:38:23;4.70;;;3.00;;
5303;SDS011;2674;49.722;10.892;2022-09-02T07:40:49;2.50;;;2.30;;
5303;SDS011;2674;49.722;10.892;2022-09-02T07:43:15;2.30;;;1.50;;
5303;SDS011;2674;49.722;10.892;2022-09-02T07:45:42;1.50;;;1.40;;
5303;SDS011;2674;49.722;10.892;2022-09-02T07:48:08;1.93;;;1.50;;
5303;SDS011;2674;49.722;10.892;2022-09-02T07:50:34;7.30;;;1.90;;
5303;SDS011;2674;49.722;10.892;2022-09-02T07:53:02;2.70;;;1.40;;
5303;SDS011;2674;49.722;10.892;2022-09-02T07:55:31;1.87;;;1.20;;
5303;SDS011;2674;49.722;10.892;2022-09-02T07:57:59;2.93;;;1.30;;
5303;SDS011;2674;49.722;10.892;2022-09-02T08:00:25;1.97;;;1.87;;
5303;SDS011;2674;49.722;10.892;2022-09-02T08:02:52;1.50;;;1.40;;
5303;SDS011;2674;49.722;10.892;2022-09-02T08:05:18;1.80;;;1.57;;
5303;SDS011;2674;49.722;10.892;2022-09-02T08:07:45;2.60;;;1.10;;
5303;SDS011;2674;49.722;10.892;2022-09-02T08:10:10;1.73;;;1.37;;
5303;SDS011;2674;49.722;10.892;2022-09-02T08:12:38;2.50;;;1.40;;
5303;SDS011;2674;49.722;10.892;2022-09-02T08:15:05;4.13;;;1.13;;
5303;SDS011;2674;49.722;10.892;2022-09-02T08:17:32;1.43;;;1.30;;
5303;SDS011;2674;49.722;10.892;2022-09-02T08:19:58;1.90;;;1.60;;
5303;SDS011;2674;49.722;10.892;2022-09-02T08:22:29;6.80;;;1.50;;
5303;SDS011;2674;49.722;10.892;2022-09-02T08:24:59;1.27;;;1.27;;
5303;SDS011;2674;49.722;10.892;2022-09-02T08:27:25;1.47;;;1.37;;
5303;SDS011;2674;49.722;10.892;2022-09-02T08:29:53;1.63;;;1.20;;
5303;SDS011;2674;49.722;10.892;2022-09-02T08:32:19;6.17;;;2.70;;
5303;SDS011;2674;49.722;10.892;2022-09-02T08:34:45;4.73;;;1.13;;
5303;SDS011;2674;49.722;10.892;2022-09-02T08:37:12;1.07;;;1.07;;
5303;SDS011;2674;49.722;10.892;2022-09-02T08:39:38;4.90;;;1.60;;
5303;SDS011;2674;49.722;10.892;2022-09-02T08:42:06;2.03;;;1.20;;
5303;SDS011;2674;49.722;10.892;2022-09-02T08:44:41;1.13;;;0.80;;
5303;SDS011;2674;49.722;10.892;2022-09-02T08:47:14;3.20;;;1.27;;
5303;SDS011;2674;49.722;10.892;2022-09-02T08:49:45;1.30;;;1.20;;
5303;SDS011;2674;49.722;10.892;2022-09-02T08:52:16;2.53;;;1.43;;
5303;SDS011;2674;49.722;10.892;2022-09-02T08:54:53;2.00;;;1.50;;
5303;SDS011;2674;49.722;10.892;2022-09-02T08:57:20;1.67;;;1.30;;
5303;SDS011;2674;49.722;10.892;2022-09-02T08:59:49;3.33;;;1.10;;
5303;SDS011;2674;49.722;10.892;2022-09-02T09:11:10;2.27;;;1.60;;
5303;SDS011;2674;49.722;10.892;2022-09-02T09:13:35;5.03;;;1.37;;
5303;SDS011;2674;49.722;10.892;2022-09-02T09:16:29;3.17;;;1.53;;
5303;SDS011;2674;49.722;10.892;2022-09-02T09:19:12;2.00;;;1.23;;
5303;SDS011;2674;49.722;10.892;2022-09-02T09:21:53;3.60;;;1.20;;
5303;SDS011;2674;49.722;10.892;2022-09-02T09:24:30;1.07;;;1.07;;
5303;SDS011;2674;49.722;10.892;2022-09-02T09:26:59;1.10;;;1.10;;
5303;SDS011;2674;49.722;10.892;2022-09-02T09:29:29;8.27;;;1.00;;
5303;SDS011;2674;49.722;10.892;2022-09-02T09:31:58;1.83;;;1.30;;
5303;SDS011;2674;49.722;10.892;2022-09-02T09:34:46;1.10;;;0.90;;
5303;SDS011;2674;49.722;10.892;2022-09-02T09:50:48;1.90;;;1.10;;
5303;SDS011;2674;49.722;10.892;2022-09-02T09:53:21;3.17;;;1.23;;
5303;SDS011;2674;49.722;10.892;2022-09-02T09:55:55;1.20;;;1.10;;
5303;SDS011;2674;49.722;10.892;2022-09-02T09:58:33;3.60;;;1.10;;
5303;SDS011;2674;49.722;10.892;2022-09-02T10:03:48;1.53;;;1.03;;
5303;SDS011;2674;49.722;10.892;2022-09-02T10:06:24;1.27;;;1.10;;
5303;SDS011;2674;49.722;10.892;2022-09-02T10:09:02;0.90;;;0.80;;
5303;SDS011;2674;49.722;10.892;2022-09-02T10:11:31;0.80;;;0.80;;
5303;SDS011;2674;49.722;10.892;2022-09-02T10:13:59;1.13;;;1.10;;
5303;SDS011;2674;49.722;10.892;2022-09-02T10:27:28;1.27;;;0.97;;
5303;SDS011;2674;49.722;10.892;2022-09-02T10:30:21;3.27;;;0.80;;
5303;SDS011;2674;49.722;10.892;2022-09-02T10:33:11;0.63;;;0.63;;
5303;SDS011;2674;49.722;10.892;2022-09-02T10:35:47;1.27;;;0.87;;
5303;SDS011;2674;49.722;10.892;2022-09-02T10:46:20;1.17;;;0.70;;
5303;SDS011;2674;49.722;10.892;2022-09-02T10:51:32;1.67;;;1.23;;
5303;SDS011;2674;49.722;10.892;2022-09-02T10:54:19;0.97;;;0.87;;
5303;SDS011;2674;49.722;10.892;2022-09-02T10:57:05;1.30;;;0.70;;
5303;SDS011;2674;49.722;10.892;2022-09-02T11:02:27;2.20;;;1.00;;
5303;SDS011;2674;49.722;10.892;2022-09-02T11:05:01;0.97;;;0.97;;
5303;SDS011;2674;49.722;10.892;2022-09-02T11:07:54;1.67;;;0.90;;
5303;SDS011;2674;49.722;10.892;2022-09-02T11:10:27;2.30;;;1.20;;
5303;SDS011;2674;49.722;10.892;2022-09-02T11:13:46;0.90;;;0.90;;
5303;SDS011;2674;49.722;10.892;2022-09-02T11:16:19;1.70;;;1.00;;
5303;SDS011;2674;49.722;10.892;2022-09-02T11:19:02;1.07;;;0.90;;
5303;SDS011;2674;49.722;10.892;2022-09-02T11:21:51;4.50;;;0.97;;
5303;SDS011;2674;49.722;10.892;2022-09-02T11:24:32;1.53;;;1.00;;
5303;SDS011;2674;49.722;10.892;2022-09-02T11:30:23;1.33;;;0.90;;
5303;SDS011;2674;49.722;10.892;2022-09-02T11:32:58;1.43;;;1.07;;
5303;SDS011;2674;49.722;10.892;2022-09-02T11:35:35;2.13;;;1.20;;
5303;SDS011;2674;49.722;10.892;2022-09-02T11:38:14;0.90;;;0.90;;
5303;SDS011;2674;49.722;10.892;2022-09-02T11:43:51;1.20;;;0.90;;
5303;SDS011;2674;49.722;10.892;2022-09-02T11:52:18;1.90;;;1.00;;
5303;SDS011;2674;49.722;10.892;2022-09-02T11:54:51;2.70;;;1.33;;
5303;SDS011;2674;49.722;10.892;2022-09-02T11:57:30;3.63;;;1.03;;
5303;SDS011;2674;49.722;10.892;2022-09-02T12:07:55;1.17;;;1.07;;
5303;SDS011;2674;49.722;10.892;2022-09-02T12:13:08;2.40;;;1.00;;
5303;SDS011;2674;49.722;10.892;2022-09-02T12:21:23;4.73;;;1.00;;
5303;SDS011;2674;49.722;10.892;2022-09-02T12:26:20;1.00;;;0.90;;
5303;SDS011;2674;49.722;10.892;2022-09-02T12:28:48;1.00;;;0.83;;
5303;SDS011;2674;49.722;10.892;2022-09-02T12:33:51;0.90;;;0.90;;
5303;SDS011;2674;49.722;10.892;2022-09-02T12:44:30;2.40;;;0.93;;
5303;SDS011;2674;49.722;10.892;2022-09-02T12:50:07;3.07;;;0.90;;
5303;SDS011;2674;49.722;10.892;2022-09-02T12:52:47;1.27;;;0.90;;
5303;SDS011;2674;49.722;10.892;2022-09-02T12:55:19;2.50;;;1.00;;
5303;SDS011;2674;49.722;10.892;2022-09-02T12:57:46;2.63;;;1.00;;
5303;SDS011;2674;49.722;10.892;2022-09-02T13:00:25;1.00;;;0.70;;
5303;SDS011;2674;49.722;10.892;2022-09-02T13:03:00;2.53;;;1.03;;
5303;SDS011;2674;49.722;10.892;2022-09-02T13:05:35;0.80;;;0.80;;
5303;SDS011;2674;49.722;10.892;2022-09-02T13:32:42;2.00;;;0.90;;
5303;SDS011;2674;49.722;10.892;2022-09-02T13:35:15;3.33;;;0.93;;
5303;SDS011;2674;49.722;10.892;2022-09-02T13:37:48;2.77;;;0.70;;
5303;SDS011;2674;49.722;10.892;2022-09-02T13:43:08;4.67;;;0.97;;
5303;SDS011;2674;49.722;10.892;2022-09-02T13:45:46;2.00;;;0.90;;
5303;SDS011;2674;49.722;10.892;2022-09-02T13:48:14;2.37;;;1.27;;
5303;SDS011;2674;49.722;10.892;2022-09-02T13:50:46;1.37;;;0.97;;
5303;SDS011;2674;49.722;10.892;2022-09-02T13:53:23;0.80;;;0.80;;
5303;SDS011;2674;49.722;10.892;2022-09-02T13:55:56;1.27;;;0.97;;
5303;SDS011;2674;49.722;10.892;2022-09-02T14:00:57;0.93;;;0.70;;
5303;SDS011;2674;49.722;10.892;2022-09-02T14:03:45;1.47;;;1.00;;
5303;SDS011;2674;49.722;10.892;2022-09-02T14:06:19;1.40;;;1.17;;
5303;SDS011;2674;49.722;10.892;2022-09-02T14:08:49;0.80;;;0.70;;
5303;SDS011;2674;49.722;10.892;2022-09-02T14:11:22;1.10;;;1.10;;
5303;SDS011;2674;49.722;10.892;2022-09-02T14:13:49;1.47;;;0.90;;
5303;SDS011;2674;49.722;10.892;2022-09-02T14:16:30;0.90;;;0.90;;
5303;SDS011;2674;49.722;10.892;2022-09-02T14:19:04;1.47;;;0.73;;
5303;SDS011;2674;49.722;10.892;2022-09-02T14:21:56;1.73;;;0.90;;
5303;SDS011;2674;49.722;10.892;2022-09-02T14:24:26;1.17;;;0.97;;
5303;SDS011;2674;49.722;10.892;2022-09-02T14:26:54;2.50;;;0.90;;
5303;SDS011;2674;49.722;10.892;2022-09-02T14:29:22;1.90;;;0.80;;
5303;SDS011;2674;49.722;10.892;2022-09-02T14:32:05;2.77;;;0.87;;
5303;SDS011;2674;49.722;10.892;2022-09-02T14:34:39;1.07;;;1.07;;
5303;SDS011;2674;49.722;10.892;2022-09-02T14:37:27;1.60;;;0.73;;
5303;SDS011;2674;49.722;10.892;2022-09-02T14:40:05;2.60;;;1.10;;
5303;SDS011;2674;49.722;10.892;2022-09-02T14:42:55;1.90;;;0.90;;
5303;SDS011;2674;49.722;10.892;2022-09-02T14:45:38;0.73;;;0.73;;
5303;SDS011;2674;49.722;10.892;2022-09-02T14:48:10;0.83;;;0.83;;
5303;SDS011;2674;49.722;10.892;2022-09-02T14:50:44;1.10;;;1.00;;
5303;SDS011;2674;49.722;10.892;2022-09-02T14:53:10;0.70;;;0.70;;
5303;SDS011;2674;49.722;10.892;2022-09-02T14:55:50;1.30;;;1.10;;
5303;SDS011;2674;49.722;10.892;2022-09-02T14:58:19;1.53;;;1.07;;
5303;SDS011;2674;49.722;10.892;2022-09-02T15:00:52;0.60;;;0.60;;
5303;SDS011;2674;49.722;10.892;2022-09-02T15:03:24;1.47;;;1.37;;
5303;SDS011;2674;49.722;10.892;2022-09-02T15:05:51;3.70;;;1.00;;
5303;SDS011;2674;49.722;10.892;2022-09-02T15:08:18;6.23;;;1.07;;
5303;SDS011;2674;49.722;10.892;2022-09-02T15:10:44;1.97;;;0.80;;
5303;SDS011;2674;49.722;10.892;2022-09-02T15:13:22;1.03;;;0.90;;
5303;SDS011;2674;49.722;10.892;2022-09-02T15:15:51;2.73;;;0.80;;
5303;SDS011;2674;49.722;10.892;2022-09-02T15:18:19;1.73;;;0.70;;
5303;SDS011;2674;49.722;10.892;2022-09-02T15:20:46;0.80;;;0.80;;
5303;SDS011;2674;49.722;10.892;2022-09-02T15:23:13;0.73;;;0.70;;
5303;SDS011;2674;49.722;10.892;2022-09-02T15:25:39;0.90;;;0.90;;
5303;SDS011;2674;49.722;10.892;2022-09-02T15:28:05;4.60;;;1.00;;
5303;SDS011;2674;49.722;10.892;2022-09-02T15:30:34;1.70;;;1.37;;
5303;SDS011;2674;49.722;10.892;2022-09-02T15:33:04;4.53;;;0.80;;
5303;SDS011;2674;49.722;10.892;2022-09-02T15:35:31;1.00;;;0.90;;
5303;SDS011;2674;49.722;10.892;2022-09-02T15:37:58;3.70;;;1.00;;
5303;SDS011;2674;49.722;10.892;2022-09-02T15:40:26;10.17;;;0.90;;
5303;SDS011;2674;49.722;10.892;2022-09-02T15:42:52;2.27;;;0.90;;
5303;SDS011;2674;49.722;10.892;2022-09-02T15:45:18;9.10;;;1.17;;
5303;SDS011;2674;49.722;10.892;2022-09-02T15:47:44;6.53;;;0.80;;
5303;SDS011;2674;49.722;10.892;2022-09-02T15:50:10;3.13;;;1.17;;
5303;SDS011;2674;49.722;10.892;2022-09-02T15:52:36;0.80;;;0.80;;
5303;SDS011;2674;49.722;10.892;2022-09-02T15:55:02;3.40;;;1.17;;
5303;SDS011;2674;49.722;10.892;2022-09-02T15:57:28;4.10;;;1.10;;
5303;SDS011;2674;49.722;10.892;2022-09-02T15:59:54;39.37;;;2.40;;
5303;SDS011;2674;49.722;10.892;2022-09-02T16:02:20;9.33;;;1.30;;
5303;SDS011;2674;49.722;10.892;2022-09-02T16:04:47;3.17;;;1.10;;
5303;SDS011;2674;49.722;10.892;2022-09-02T16:07:13;3.23;;;1.30;;
5303;SDS011;2674;49.722;10.892;2022-09-02T16:09:39;3.40;;;1.10;;
5303;SDS011;2674;49.722;10.892;2022-09-02T16:12:05;3.00;;;1.00;;
5303;SDS011;2674;49.722;10.892;2022-09-02T16:14:31;6.87;;;1.30;;
5303;SDS011;2674;49.722;10.892;2022-09-02T16:16:58;1.27;;;1.10;;
5303;SDS011;2674;49.722;10.892;2022-09-02T16:19:24;1.37;;;0.90;;
5303;SDS011;2674;49.722;10.892;2022-09-02T16:21:51;1.10;;;0.93;;
5303;SDS011;2674;49.722;10.892;2022-09-02T16:24:17;1.23;;;0.93;;
5303;SDS011;2674;49.722;10.892;2022-09-02T16:26:45;2.53;;;1.07;;
5303;SDS011;2674;49.722;10.892;2022-09-02T16:29:12;17.17;;;1.53;;
5303;SDS011;2674;49.722;10.892;2022-09-02T16:31:41;0.80;;;0.70;;
5303;SDS011;2674;49.722;10.892;2022-09-02T16:34:14;1.40;;;1.00;;
5303;SDS011;2674;49.722;10.892;2022-09-02T16:36:42;1.43;;;0.80;;
5303;SDS011;2674;49.722;10.892;2022-09-02T16:39:10;2.87;;;1.70;;
5303;SDS011;2674;49.722;10.892;2022-09-02T16:41:42;2.30;;;1.03;;
5303;SDS011;2674;49.722;10.892;2022-09-02T16:44:11;2.07;;;0.70;;
5303;SDS011;2674;49.722;10.892;2022-09-02T16:46:40;0.77;;;0.77;;
5303;SDS011;2674;49.722;10.892;2022-09-02T16:49:07;3.40;;;0.73;;
5303;SDS011;2674;49.722;10.892;2022-09-02T16:51:35;0.87;;;0.87;;
5303;SDS011;2674;49.722;10.892;2022-09-02T16:54:02;1.00;;;0.90;;
5303;SDS011;2674;49.722;10.892;2022-09-02T16:56:29;1.00;;;0.70;;
5303;SDS011;2674;49.722;10.892;2022-09-02T16:58:58;2.20;;;0.70;;
5303;SDS011;2674;49.722;10.892;2022-09-02T17:01:27;1.13;;;0.87;;
5303;SDS011;2674;49.722;10.892;2022-09-02T17:03:53;2.67;;;1.30;;
5303;SDS011;2674;49.722;10.892;2022-09-02T17:06:19;0.80;;;0.80;;
5303;SDS011;2674;49.722;10.892;2022-09-02T17:08:45;0.80;;;0.77;;
5303;SDS011;2674;49.722;10.892;2022-09-02T17:13:56;2.10;;;1.03;;
5303;SDS011;2674;49.722;10.892;2022-09-02T17:16:24;3.10;;;1.00;;
5303;SDS011;2674;49.722;10.892;2022-09-02T17:18:53;2.67;;;0.70;;
5303;SDS011;2674;49.722;10.892;2022-09-02T17:24:01;15.77;;;1.20;;
5303;SDS011;2674;49.722;10.892;2022-09-02T17:26:29;2.20;;;0.60;;
5303;SDS011;2674;49.722;10.892;2022-09-02T17:28:57;2.13;;;1.10;;
5303;SDS011;2674;49.722;10.892;2022-09-02T17:31:28;1.27;;;1.00;;